SAV weather

Savissivik Heliport
Savissivik, Greenland

Public forecast

Using degrees Celsius for public forecast. Weather courtesy of forecast.io.

METAR (pilot weather report)

Closest report is Thule Air Base, 59.6 nm (110.4 km) WNW. Retrieved 2019/04/26 09:11 UTC (47 minutes ago):

BGTL 260911Z AUTO 12010KT 9999 CLR M14/M17 A3014 RMK AO2 WSHFT 04 SLP195 TSNO $

TAF (pilot weather forecast)

Closest forecast is Thule Air Base, 59.6 nm (110.4 km) WNW. Retrieved 2019/04/26 09:03 UTC (55 minutes ago):

TAF BGTL 260900Z 2609/2715 12015G25KT 9000 BLSN FEW015 BKN045 620451 QNH2994INS WND 060V160 TEMPO 2609/2611 17020G30KT BKN015 620152 520005 BECMG 2623/2624 15010G15KT 9999 -SHSN BKN015 610152 QNH2990INS TXM09/2618Z TNM18/2612Z